sensor_id;sensor_type;location;lat;lon;timestamp;temperature;humidity
36556;DHT22;40859;50.560;7.268;2023-03-23T00:02:26;21.80;81.20
36556;DHT22;40859;50.560;7.268;2023-03-23T00:04:52;21.80;80.30
36556;DHT22;40859;50.560;7.268;2023-03-23T00:07:21;21.80;80.10
36556;DHT22;40859;50.560;7.268;2023-03-23T00:09:48;21.80;80.10
36556;DHT22;40859;50.560;7.268;2023-03-23T00:12:22;21.80;80.10
36556;DHT22;40859;50.560;7.268;2023-03-23T00:14:54;21.80;81.10
36556;DHT22;40859;50.560;7.268;2023-03-23T00:17:20;21.80;81.00
36556;DHT22;40859;50.560;7.268;2023-03-23T00:19:46;21.80;80.00
36556;DHT22;40859;50.560;7.268;2023-03-23T00:22:15;21.80;80.20
36556;DHT22;40859;50.560;7.268;2023-03-23T00:24:42;21.80;80.00
36556;DHT22;40859;50.560;7.268;2023-03-23T00:27:08;21.80;80.60
36556;DHT22;40859;50.560;7.268;2023-03-23T00:29:34;21.80;80.10
36556;DHT22;40859;50.560;7.268;2023-03-23T00:32:00;21.80;79.70
36556;DHT22;40859;50.560;7.268;2023-03-23T00:34:27;21.80;79.80
36556;DHT22;40859;50.560;7.268;2023-03-23T00:36:57;21.80;79.80
36556;DHT22;40859;50.560;7.268;2023-03-23T00:39:27;21.80;79.70
36556;DHT22;40859;50.560;7.268;2023-03-23T00:41:53;21.80;79.70
36556;DHT22;40859;50.560;7.268;2023-03-23T00:44:32;21.80;79.30
36556;DHT22;40859;50.560;7.268;2023-03-23T00:47:00;21.80;79.50
36556;DHT22;40859;50.560;7.268;2023-03-23T00:49:26;21.80;80.60
36556;DHT22;40859;50.560;7.268;2023-03-23T00:51:52;21.80;79.80
36556;DHT22;40859;50.560;7.268;2023-03-23T00:54:18;21.80;79.80
36556;DHT22;40859;50.560;7.268;2023-03-23T00:56:44;21.80;80.50
36556;DHT22;40859;50.560;7.268;2023-03-23T00:59:09;21.80;79.80
36556;DHT22;40859;50.560;7.268;2023-03-23T01:01:35;21.80;79.70
36556;DHT22;40859;50.560;7.268;2023-03-23T01:04:01;21.80;79.80
36556;DHT22;40859;50.560;7.268;2023-03-23T01:06:33;21.70;79.70
36556;DHT22;40859;50.560;7.268;2023-03-23T01:09:01;21.80;79.90
36556;DHT22;40859;50.560;7.268;2023-03-23T01:11:27;21.80;79.80
36556;DHT22;40859;50.560;7.268;2023-03-23T01:13:53;21.80;79.70
36556;DHT22;40859;50.560;7.268;2023-03-23T01:16:19;21.70;79.60
36556;DHT22;40859;50.560;7.268;2023-03-23T01:18:45;21.70;79.70
36556;DHT22;40859;50.560;7.268;2023-03-23T01:21:11;21.70;79.60
36556;DHT22;40859;50.560;7.268;2023-03-23T01:23:38;21.70;79.50
36556;DHT22;40859;50.560;7.268;2023-03-23T01:26:04;21.70;79.70
36556;DHT22;40859;50.560;7.268;2023-03-23T01:28:30;21.70;79.50
36556;DHT22;40859;50.560;7.268;2023-03-23T01:31:01;21.70;80.50
36556;DHT22;40859;50.560;7.268;2023-03-23T01:33:27;21.70;79.60
36556;DHT22;40859;50.560;7.268;2023-03-23T01:35:53;21.70;79.90
36556;DHT22;40859;50.560;7.268;2023-03-23T01:38:18;21.70;79.70
36556;DHT22;40859;50.560;7.268;2023-03-23T01:40:44;21.70;79.60
36556;DHT22;40859;50.560;7.268;2023-03-23T01:43:11;21.70;79.60
36556;DHT22;40859;50.560;7.268;2023-03-23T01:45:38;21.70;79.60
36556;DHT22;40859;50.560;7.268;2023-03-23T01:48:16;21.70;79.60
36556;DHT22;40859;50.560;7.268;2023-03-23T01:50:48;21.70;79.70
36556;DHT22;40859;50.560;7.268;2023-03-23T01:53:15;21.70;79.60
36556;DHT22;40859;50.560;7.268;2023-03-23T01:55:42;21.70;79.50
36556;DHT22;40859;50.560;7.268;2023-03-23T01:58:08;21.70;79.60
36556;DHT22;40859;50.560;7.268;2023-03-23T02:00:34;21.70;79.50
36556;DHT22;40859;50.560;7.268;2023-03-23T02:03:00;21.70;79.50
36556;DHT22;40859;50.560;7.268;2023-03-23T02:05:28;21.70;79.60
36556;DHT22;40859;50.560;7.268;2023-03-23T02:07:56;21.70;79.70
36556;DHT22;40859;50.560;7.268;2023-03-23T02:10:24;21.70;79.60
36556;DHT22;40859;50.560;7.268;2023-03-23T02:12:50;21.70;79.50
36556;DHT22;40859;50.560;7.268;2023-03-23T02:15:16;21.70;79.70
36556;DHT22;40859;50.560;7.268;2023-03-23T02:17:57;21.70;79.80
36556;DHT22;40859;50.560;7.268;2023-03-23T02:21:04;21.70;79.70
36556;DHT22;40859;50.560;7.268;2023-03-23T02:28:55;21.70;79.70
36556;DHT22;40859;50.560;7.268;2023-03-23T02:33:28;21.70;79.60
36556;DHT22;40859;50.560;7.268;2023-03-23T02:35:56;21.70;79.60
36556;DHT22;40859;50.560;7.268;2023-03-23T02:38:30;21.70;79.70
36556;DHT22;40859;50.560;7.268;2023-03-23T02:40:57;21.60;80.50
36556;DHT22;40859;50.560;7.268;2023-03-23T02:43:25;21.60;79.60
36556;DHT22;40859;50.560;7.268;2023-03-23T02:45:51;21.70;79.80
36556;DHT22;40859;50.560;7.268;2023-03-23T02:48:18;21.60;79.60
36556;DHT22;40859;50.560;7.268;2023-03-23T02:50:47;21.60;79.70
36556;DHT22;40859;50.560;7.268;2023-03-23T02:53:15;21.60;79.70
36556;DHT22;40859;50.560;7.268;2023-03-23T02:55:42;21.60;80.50
36556;DHT22;40859;50.560;7.268;2023-03-23T02:58:12;21.60;80.20
36556;DHT22;40859;50.560;7.268;2023-03-23T03:00:38;21.60;79.90
36556;DHT22;40859;50.560;7.268;2023-03-23T03:03:04;21.60;79.30
36556;DHT22;40859;50.560;7.268;2023-03-23T03:05:44;21.60;79.60
36556;DHT22;40859;50.560;7.268;2023-03-23T03:08:35;21.60;79.90
36556;DHT22;40859;50.560;7.268;2023-03-23T03:11:06;21.60;79.80
36556;DHT22;40859;50.560;7.268;2023-03-23T03:21:10;21.60;79.90
36556;DHT22;40859;50.560;7.268;2023-03-23T03:23:40;21.60;80.50
36556;DHT22;40859;50.560;7.268;2023-03-23T03:26:07;21.60;79.80
36556;DHT22;40859;50.560;7.268;2023-03-23T03:28:35;21.50;79.80
36556;DHT22;40859;50.560;7.268;2023-03-23T03:31:01;21.50;80.10
36556;DHT22;40859;50.560;7.268;2023-03-23T03:33:28;21.50;80.30
36556;DHT22;40859;50.560;7.268;2023-03-23T03:35:57;21.40;80.60
36556;DHT22;40859;50.560;7.268;2023-03-23T03:38:24;21.50;80.40
36556;DHT22;40859;50.560;7.268;2023-03-23T03:40:50;21.50;79.80
36556;DHT22;40859;50.560;7.268;2023-03-23T03:43:16;21.50;80.10
36556;DHT22;40859;50.560;7.268;2023-03-23T03:45:41;21.50;80.10
36556;DHT22;40859;50.560;7.268;2023-03-23T03:48:07;21.50;80.10
36556;DHT22;40859;50.560;7.268;2023-03-23T03:50:33;21.50;80.80
36556;DHT22;40859;50.560;7.268;2023-03-23T03:52:59;21.50;80.30
36556;DHT22;40859;50.560;7.268;2023-03-23T03:55:24;21.50;80.10
36556;DHT22;40859;50.560;7.268;2023-03-23T03:57:50;21.50;80.60
36556;DHT22;40859;50.560;7.268;2023-03-23T04:00:16;21.50;80.20
36556;DHT22;40859;50.560;7.268;2023-03-23T04:02:44;21.50;79.50
36556;DHT22;40859;50.560;7.268;2023-03-23T04:05:13;21.50;80.00
36556;DHT22;40859;50.560;7.268;2023-03-23T04:07:38;21.50;80.10
36556;DHT22;40859;50.560;7.268;2023-03-23T04:10:06;21.50;80.00
36556;DHT22;40859;50.560;7.268;2023-03-23T04:12:33;21.50;80.10
36556;DHT22;40859;50.560;7.268;2023-03-23T04:14:59;21.50;79.80
36556;DHT22;40859;50.560;7.268;2023-03-23T04:17:25;21.50;80.10
36556;DHT22;40859;50.560;7.268;2023-03-23T04:19:52;21.50;80.00
36556;DHT22;40859;50.560;7.268;2023-03-23T04:22:18;21.50;80.10
36556;DHT22;40859;50.560;7.268;2023-03-23T04:24:44;21.50;79.90
36556;DHT22;40859;50.560;7.268;2023-03-23T04:27:09;21.50;79.90
36556;DHT22;40859;50.560;7.268;2023-03-23T04:29:38;21.50;80.00
36556;DHT22;40859;50.560;7.268;2023-03-23T04:32:03;21.50;80.30
36556;DHT22;40859;50.560;7.268;2023-03-23T04:34:29;21.50;81.10
36556;DHT22;40859;50.560;7.268;2023-03-23T04:36:58;21.40;80.20
36556;DHT22;40859;50.560;7.268;2023-03-23T04:39:24;21.40;80.90
36556;DHT22;40859;50.560;7.268;2023-03-23T04:41:49;21.40;80.20
36556;DHT22;40859;50.560;7.268;2023-03-23T04:44:15;21.40;80.20
36556;DHT22;40859;50.560;7.268;2023-03-23T04:46:46;21.40;80.10
36556;DHT22;40859;50.560;7.268;2023-03-23T04:49:15;21.40;80.30
36556;DHT22;40859;50.560;7.268;2023-03-23T04:51:46;21.40;81.20
36556;DHT22;40859;50.560;7.268;2023-03-23T04:54:12;21.40;80.40
36556;DHT22;40859;50.560;7.268;2023-03-23T04:56:38;21.40;80.00
36556;DHT22;40859;50.560;7.268;2023-03-23T04:59:03;21.40;80.20
36556;DHT22;40859;50.560;7.268;2023-03-23T05:01:31;21.40;80.10
36556;DHT22;40859;50.560;7.268;2023-03-23T05:03:57;21.40;80.30
36556;DHT22;40859;50.560;7.268;2023-03-23T05:06:22;21.40;80.20
36556;DHT22;40859;50.560;7.268;2023-03-23T05:08:48;21.40;80.20
36556;DHT22;40859;50.560;7.268;2023-03-23T05:11:14;21.40;80.40
36556;DHT22;40859;50.560;7.268;2023-03-23T05:13:39;21.40;80.40
36556;DHT22;40859;50.560;7.268;2023-03-23T05:16:05;21.40;80.20
36556;DHT22;40859;50.560;7.268;2023-03-23T05:18:31;21.40;80.40
36556;DHT22;40859;50.560;7.268;2023-03-23T05:21:01;21.40;80.60
36556;DHT22;40859;50.560;7.268;2023-03-23T05:23:28;21.40;80.60
36556;DHT22;40859;50.560;7.268;2023-03-23T05:25:56;21.40;80.60
36556;DHT22;40859;50.560;7.268;2023-03-23T05:28:22;21.40;80.70
36556;DHT22;40859;50.560;7.268;2023-03-23T05:30:48;21.40;80.60
36556;DHT22;40859;50.560;7.268;2023-03-23T05:33:14;21.40;80.60
36556;DHT22;40859;50.560;7.268;2023-03-23T05:35:40;21.40;80.60
36556;DHT22;40859;50.560;7.268;2023-03-23T05:38:05;21.40;80.60
36556;DHT22;40859;50.560;7.268;2023-03-23T05:40:31;21.40;80.50
36556;DHT22;40859;50.560;7.268;2023-03-23T05:42:57;21.40;81.10
36556;DHT22;40859;50.560;7.268;2023-03-23T05:45:24;21.40;80.80
36556;DHT22;40859;50.560;7.268;2023-03-23T05:47:50;21.40;80.80
36556;DHT22;40859;50.560;7.268;2023-03-23T05:50:16;21.40;80.80
36556;DHT22;40859;50.560;7.268;2023-03-23T05:52:42;21.40;80.90
36556;DHT22;40859;50.560;7.268;2023-03-23T05:55:08;21.40;80.90
36556;DHT22;40859;50.560;7.268;2023-03-23T05:57:34;21.40;81.10
36556;DHT22;40859;50.560;7.268;2023-03-23T06:00:00;21.40;80.80
36556;DHT22;40859;50.560;7.268;2023-03-23T06:02:31;21.40;80.70
36556;DHT22;40859;50.560;7.268;2023-03-23T06:04:57;21.40;80.90
36556;DHT22;40859;50.560;7.268;2023-03-23T06:07:24;21.40;80.80
36556;DHT22;40859;50.560;7.268;2023-03-23T06:09:50;21.40;81.00
36556;DHT22;40859;50.560;7.268;2023-03-23T06:12:16;21.50;80.60
36556;DHT22;40859;50.560;7.268;2023-03-23T06:14:48;21.50;80.50
36556;DHT22;40859;50.560;7.268;2023-03-23T06:17:17;21.50;81.30
36556;DHT22;40859;50.560;7.268;2023-03-23T06:19:42;21.50;81.10
36556;DHT22;40859;50.560;7.268;2023-03-23T06:22:09;21.50;81.20
36556;DHT22;40859;50.560;7.268;2023-03-23T06:24:34;21.40;80.70
36556;DHT22;40859;50.560;7.268;2023-03-23T06:27:00;21.50;81.60
36556;DHT22;40859;50.560;7.268;2023-03-23T06:29:26;21.50;81.30
36556;DHT22;40859;50.560;7.268;2023-03-23T06:31:52;21.50;81.90
36556;DHT22;40859;50.560;7.268;2023-03-23T06:34:20;21.40;81.30
36556;DHT22;40859;50.560;7.268;2023-03-23T06:36:46;21.40;81.20
36556;DHT22;40859;50.560;7.268;2023-03-23T06:39:12;21.40;82.20
36556;DHT22;40859;50.560;7.268;2023-03-23T06:41:39;21.30;81.50
36556;DHT22;40859;50.560;7.268;2023-03-23T06:44:05;21.40;81.30
36556;DHT22;40859;50.560;7.268;2023-03-23T06:46:31;21.40;81.20
36556;DHT22;40859;50.560;7.268;2023-03-23T06:48:57;21.40;81.20
36556;DHT22;40859;50.560;7.268;2023-03-23T06:51:23;21.40;81.00
36556;DHT22;40859;50.560;7.268;2023-03-23T06:53:49;21.40;81.00
36556;DHT22;40859;50.560;7.268;2023-03-23T06:56:15;21.50;81.10
36556;DHT22;40859;50.560;7.268;2023-03-23T06:58:41;21.50;81.10
36556;DHT22;40859;50.560;7.268;2023-03-23T07:01:13;21.50;81.10
36556;DHT22;40859;50.560;7.268;2023-03-23T07:03:40;21.50;81.10
36556;DHT22;40859;50.560;7.268;2023-03-23T07:06:06;21.50;81.10
36556;DHT22;40859;50.560;7.268;2023-03-23T07:08:33;21.50;81.00
36556;DHT22;40859;50.560;7.268;2023-03-23T07:10:59;21.50;80.80
36556;DHT22;40859;50.560;7.268;2023-03-23T07:13:24;21.40;80.70
36556;DHT22;40859;50.560;7.268;2023-03-23T07:15:51;21.40;81.30
36556;DHT22;40859;50.560;7.268;2023-03-23T07:18:16;21.40;81.10
36556;DHT22;40859;50.560;7.268;2023-03-23T07:20:42;21.40;81.10
36556;DHT22;40859;50.560;7.268;2023-03-23T07:23:08;21.40;81.30
36556;DHT22;40859;50.560;7.268;2023-03-23T07:25:34;21.30;81.30
36556;DHT22;40859;50.560;7.268;2023-03-23T07:28:00;21.30;81.40
36556;DHT22;40859;50.560;7.268;2023-03-23T07:30:26;21.30;81.30
36556;DHT22;40859;50.560;7.268;2023-03-23T07:32:54;21.30;81.40
36556;DHT22;40859;50.560;7.268;2023-03-23T07:35:20;21.30;81.50
36556;DHT22;40859;50.560;7.268;2023-03-23T07:37:46;21.30;82.20
36556;DHT22;40859;50.560;7.268;2023-03-23T07:40:14;21.30;81.30
36556;DHT22;40859;50.560;7.268;2023-03-23T07:42:41;21.30;81.40
36556;DHT22;40859;50.560;7.268;2023-03-23T07:45:08;21.30;81.40
36556;DHT22;40859;50.560;7.268;2023-03-23T07:47:34;21.30;81.40
36556;DHT22;40859;50.560;7.268;2023-03-23T07:50:00;21.30;81.50
36556;DHT22;40859;50.560;7.268;2023-03-23T07:52:26;21.20;81.40
36556;DHT22;40859;50.560;7.268;2023-03-23T07:54:51;21.20;81.30
36556;DHT22;40859;50.560;7.268;2023-03-23T07:57:17;21.20;81.30
36556;DHT22;40859;50.560;7.268;2023-03-23T07:59:43;21.20;81.40
36556;DHT22;40859;50.560;7.268;2023-03-23T08:02:08;21.20;81.20
36556;DHT22;40859;50.560;7.268;2023-03-23T08:04:35;21.20;81.40
36556;DHT22;40859;50.560;7.268;2023-03-23T08:07:03;21.20;81.20
36556;DHT22;40859;50.560;7.268;2023-03-23T08:09:29;21.20;81.30
36556;DHT22;40859;50.560;7.268;2023-03-23T08:11:55;21.20;81.20
36556;DHT22;40859;50.560;7.268;2023-03-23T08:14:21;21.20;81.20
36556;DHT22;40859;50.560;7.268;2023-03-23T08:16:47;21.20;81.20
36556;DHT22;40859;50.560;7.268;2023-03-23T08:19:13;21.20;81.20
36556;DHT22;40859;50.560;7.268;2023-03-23T08:21:39;21.20;81.90
36556;DHT22;40859;50.560;7.268;2023-03-23T08:24:06;21.20;80.90
36556;DHT22;40859;50.560;7.268;2023-03-23T08:26:31;21.20;81.40
36556;DHT22;40859;50.560;7.268;2023-03-23T08:28:57;21.20;81.30
36556;DHT22;40859;50.560;7.268;2023-03-23T08:31:23;21.20;80.70
36556;DHT22;40859;50.560;7.268;2023-03-23T08:33:50;21.20;81.20
36556;DHT22;40859;50.560;7.268;2023-03-23T08:36:15;21.20;81.50
36556;DHT22;40859;50.560;7.268;2023-03-23T08:38:41;21.20;81.80
36556;DHT22;40859;50.560;7.268;2023-03-23T08:41:08;21.20;81.20
36556;DHT22;40859;50.560;7.268;2023-03-23T08:43:34;21.20;81.30
36556;DHT22;40859;50.560;7.268;2023-03-23T08:46:00;21.20;81.20
36556;DHT22;40859;50.560;7.268;2023-03-23T08:48:32;21.20;81.20
36556;DHT22;40859;50.560;7.268;2023-03-23T08:50:59;21.20;82.00
36556;DHT22;40859;50.560;7.268;2023-03-23T08:53:26;21.20;81.30
36556;DHT22;40859;50.560;7.268;2023-03-23T08:55:55;21.20;81.30
36556;DHT22;40859;50.560;7.268;2023-03-23T08:58:21;21.20;81.30
36556;DHT22;40859;50.560;7.268;2023-03-23T09:00:48;21.20;81.20
36556;DHT22;40859;50.560;7.268;2023-03-23T09:03:14;21.20;81.20
36556;DHT22;40859;50.560;7.268;2023-03-23T09:05:40;21.20;81.80
36556;DHT22;40859;50.560;7.268;2023-03-23T09:08:11;21.20;81.20
36556;DHT22;40859;50.560;7.268;2023-03-23T09:10:37;21.20;81.20
36556;DHT22;40859;50.560;7.268;2023-03-23T09:13:04;21.20;81.20
36556;DHT22;40859;50.560;7.268;2023-03-23T09:15:30;21.20;81.20
36556;DHT22;40859;50.560;7.268;2023-03-23T09:17:56;21.20;81.00
36556;DHT22;40859;50.560;7.268;2023-03-23T09:20:23;21.20;81.10
36556;DHT22;40859;50.560;7.268;2023-03-23T09:22:50;21.20;81.10
36556;DHT22;40859;50.560;7.268;2023-03-23T09:25:18;21.20;81.00
36556;DHT22;40859;50.560;7.268;2023-03-23T09:27:46;21.20;81.20
36556;DHT22;40859;50.560;7.268;2023-03-23T09:30:16;21.20;81.10
36556;DHT22;40859;50.560;7.268;2023-03-23T09:32:44;21.20;81.00
36556;DHT22;40859;50.560;7.268;2023-03-23T09:35:10;21.20;81.00
36556;DHT22;40859;50.560;7.268;2023-03-23T09:37:40;21.20;80.70
36556;DHT22;40859;50.560;7.268;2023-03-23T09:40:09;21.20;81.00
36556;DHT22;40859;50.560;7.268;2023-03-23T09:42:42;21.20;80.90
36556;DHT22;40859;50.560;7.268;2023-03-23T09:50:40;21.20;81.10
36556;DHT22;40859;50.560;7.268;2023-03-23T09:53:15;21.20;81.50
36556;DHT22;40859;50.560;7.268;2023-03-23T09:55:42;21.20;81.10
36556;DHT22;40859;50.560;7.268;2023-03-23T09:58:20;21.20;81.00
36556;DHT22;40859;50.560;7.268;2023-03-23T10:01:14;21.20;81.10
36556;DHT22;40859;50.560;7.268;2023-03-23T10:03:42;21.20;81.20
36556;DHT22;40859;50.560;7.268;2023-03-23T10:06:15;21.20;81.20
36556;DHT22;40859;50.560;7.268;2023-03-23T10:08:50;21.20;81.20
36556;DHT22;40859;50.560;7.268;2023-03-23T10:11:42;21.20;81.40
36556;DHT22;40859;50.560;7.268;2023-03-23T10:14:14;21.20;81.40
36556;DHT22;40859;50.560;7.268;2023-03-23T10:16:45;21.20;81.30
36556;DHT22;40859;50.560;7.268;2023-03-23T10:19:26;21.20;81.40
36556;DHT22;40859;50.560;7.268;2023-03-23T10:21:56;21.20;80.80
36556;DHT22;40859;50.560;7.268;2023-03-23T10:29:31;21.20;81.50
36556;DHT22;40859;50.560;7.268;2023-03-23T10:32:02;21.20;81.40
36556;DHT22;40859;50.560;7.268;2023-03-23T10:37:32;21.20;82.00
36556;DHT22;40859;50.560;7.268;2023-03-23T10:40:03;21.20;81.50
36556;DHT22;40859;50.560;7.268;2023-03-23T10:42:35;21.20;81.50
36556;DHT22;40859;50.560;7.268;2023-03-23T10:45:16;21.20;81.60
36556;DHT22;40859;50.560;7.268;2023-03-23T10:47:45;21.20;81.10
36556;DHT22;40859;50.560;7.268;2023-03-23T10:50:15;21.20;81.60
36556;DHT22;40859;50.560;7.268;2023-03-23T10:52:42;21.20;81.60
36556;DHT22;40859;50.560;7.268;2023-03-23T10:55:16;21.20;81.40
36556;DHT22;40859;50.560;7.268;2023-03-23T10:57:43;21.20;81.60
36556;DHT22;40859;50.560;7.268;2023-03-23T11:00:18;21.20;81.50
36556;DHT22;40859;50.560;7.268;2023-03-23T11:02:47;21.20;81.60
36556;DHT22;40859;50.560;7.268;2023-03-23T11:05:23;21.20;81.50
36556;DHT22;40859;50.560;7.268;2023-03-23T11:07:56;21.20;81.60
36556;DHT22;40859;50.560;7.268;2023-03-23T11:10:23;21.20;82.00
36556;DHT22;40859;50.560;7.268;2023-03-23T11:12:49;21.20;81.60
36556;DHT22;40859;50.560;7.268;2023-03-23T11:15:29;21.20;81.60
36556;DHT22;40859;50.560;7.268;2023-03-23T11:18:03;21.20;81.60
36556;DHT22;40859;50.560;7.268;2023-03-23T11:20:29;21.20;81.60
36556;DHT22;40859;50.560;7.268;2023-03-23T11:22:59;21.20;81.20
36556;DHT22;40859;50.560;7.268;2023-03-23T11:25:24;21.20;81.80
36556;DHT22;40859;50.560;7.268;2023-03-23T11:27:51;21.20;81.60
36556;DHT22;40859;50.560;7.268;2023-03-23T11:30:25;21.20;81.70
36556;DHT22;40859;50.560;7.268;2023-03-23T11:32:52;21.20;81.10
36556;DHT22;40859;50.560;7.268;2023-03-23T11:35:20;21.20;81.70
36556;DHT22;40859;50.560;7.268;2023-03-23T11:37:47;21.20;81.60
36556;DHT22;40859;50.560;7.268;2023-03-23T11:40:18;21.20;81.60
36556;DHT22;40859;50.560;7.268;2023-03-23T11:43:06;21.30;81.50
36556;DHT22;40859;50.560;7.268;2023-03-23T11:48:24;21.20;81.60
36556;DHT22;40859;50.560;7.268;2023-03-23T11:50:54;21.30;82.50
36556;DHT22;40859;50.560;7.268;2023-03-23T11:53:27;21.20;81.60
36556;DHT22;40859;50.560;7.268;2023-03-23T11:58:39;21.20;82.00
36556;DHT22;40859;50.560;7.268;2023-03-23T12:01:09;21.30;81.60
36556;DHT22;40859;50.560;7.268;2023-03-23T12:15:38;21.30;81.70
36556;DHT22;40859;50.560;7.268;2023-03-23T12:18:12;21.30;81.80
36556;DHT22;40859;50.560;7.268;2023-03-23T12:20:45;21.30;81.70
36556;DHT22;40859;50.560;7.268;2023-03-23T12:23:18;21.30;81.60
36556;DHT22;40859;50.560;7.268;2023-03-23T12:37:59;21.30;81.80
36556;DHT22;40859;50.560;7.268;2023-03-23T12:40:42;21.30;81.80
36556;DHT22;40859;50.560;7.268;2023-03-23T12:43:57;21.30;81.70
36556;DHT22;40859;50.560;7.268;2023-03-23T12:50:29;21.30;81.60
36556;DHT22;40859;50.560;7.268;2023-03-23T12:53:02;21.30;81.80
36556;DHT22;40859;50.560;7.268;2023-03-23T12:55:32;21.30;81.60
36556;DHT22;40859;50.560;7.268;2023-03-23T12:58:01;21.30;81.60
36556;DHT22;40859;50.560;7.268;2023-03-23T13:00:29;21.30;81.60
36556;DHT22;40859;50.560;7.268;2023-03-23T13:03:07;21.30;81.70
36556;DHT22;40859;50.560;7.268;2023-03-23T13:05:38;21.30;81.60
36556;DHT22;40859;50.560;7.268;2023-03-23T13:08:16;21.30;81.70
36556;DHT22;40859;50.560;7.268;2023-03-23T13:10:47;21.30;81.60
36556;DHT22;40859;50.560;7.268;2023-03-23T13:13:18;21.30;81.60
36556;DHT22;40859;50.560;7.268;2023-03-23T13:16:30;21.30;82.10
36556;DHT22;40859;50.560;7.268;2023-03-23T13:19:17;21.30;81.60
36556;DHT22;40859;50.560;7.268;2023-03-23T13:22:01;21.30;81.60
36556;DHT22;40859;50.560;7.268;2023-03-23T13:24:27;21.30;81.80
36556;DHT22;40859;50.560;7.268;2023-03-23T13:26:55;21.30;81.60
36556;DHT22;40859;50.560;7.268;2023-03-23T13:29:26;21.30;81.70
36556;DHT22;40859;50.560;7.268;2023-03-23T13:32:03;21.30;81.80
36556;DHT22;40859;50.560;7.268;2023-03-23T13:34:31;21.30;81.80
36556;DHT22;40859;50.560;7.268;2023-03-23T13:37:04;21.30;80.90
36556;DHT22;40859;50.560;7.268;2023-03-23T13:39:31;21.30;81.60
36556;DHT22;40859;50.560;7.268;2023-03-23T13:42:03;21.30;81.80
36556;DHT22;40859;50.560;7.268;2023-03-23T13:54:15;21.30;81.60
36556;DHT22;40859;50.560;7.268;2023-03-23T13:56:55;21.30;81.60
36556;DHT22;40859;50.560;7.268;2023-03-23T14:02:31;21.30;81.60
36556;DHT22;40859;50.560;7.268;2023-03-23T14:05:07;21.40;81.80
36556;DHT22;40859;50.560;7.268;2023-03-23T14:07:50;21.30;81.50
36556;DHT22;40859;50.560;7.268;2023-03-23T14:10:15;21.40;81.60
36556;DHT22;40859;50.560;7.268;2023-03-23T14:12:42;21.40;81.50
36556;DHT22;40859;50.560;7.268;2023-03-23T14:15:11;21.40;81.60
36556;DHT22;40859;50.560;7.268;2023-03-23T14:17:40;21.40;81.50
36556;DHT22;40859;50.560;7.268;2023-03-23T14:20:30;21.40;81.60
36556;DHT22;40859;50.560;7.268;2023-03-23T14:22:57;21.40;81.80
36556;DHT22;40859;50.560;7.268;2023-03-23T14:25:26;21.40;81.80
36556;DHT22;40859;50.560;7.268;2023-03-23T14:27:52;21.30;81.00
36556;DHT22;40859;50.560;7.268;2023-03-23T14:30:19;21.40;81.60
36556;DHT22;40859;50.560;7.268;2023-03-23T14:32:45;21.40;82.50
36556;DHT22;40859;50.560;7.268;2023-03-23T14:35:13;21.40;81.20
36556;DHT22;40859;50.560;7.268;2023-03-23T14:37:40;21.40;81.40
36556;DHT22;40859;50.560;7.268;2023-03-23T14:40:08;21.40;81.60
36556;DHT22;40859;50.560;7.268;2023-03-23T14:42:35;21.40;81.60
36556;DHT22;40859;50.560;7.268;2023-03-23T14:45:01;21.40;81.70
36556;DHT22;40859;50.560;7.268;2023-03-23T14:47:33;21.40;81.60
36556;DHT22;40859;50.560;7.268;2023-03-23T14:50:00;21.40;81.80
36556;DHT22;40859;50.560;7.268;2023-03-23T14:52:27;21.40;81.70
36556;DHT22;40859;50.560;7.268;2023-03-23T14:54:53;21.40;81.60
36556;DHT22;40859;50.560;7.268;2023-03-23T14:57:28;21.40;81.60
36556;DHT22;40859;50.560;7.268;2023-03-23T14:59:55;21.40;81.60
36556;DHT22;40859;50.560;7.268;2023-03-23T15:02:32;21.40;81.60
36556;DHT22;40859;50.560;7.268;2023-03-23T15:05:00;21.40;81.80
36556;DHT22;40859;50.560;7.268;2023-03-23T15:07:29;21.40;81.60
36556;DHT22;40859;50.560;7.268;2023-03-23T15:09:56;21.40;81.50
36556;DHT22;40859;50.560;7.268;2023-03-23T15:12:24;21.40;81.50
36556;DHT22;40859;50.560;7.268;2023-03-23T15:15:01;21.40;81.50
36556;DHT22;40859;50.560;7.268;2023-03-23T15:17:28;21.40;81.60
36556;DHT22;40859;50.560;7.268;2023-03-23T15:19:55;21.40;81.50
36556;DHT22;40859;50.560;7.268;2023-03-23T15:22:25;21.40;82.40
36556;DHT22;40859;50.560;7.268;2023-03-23T15:24:52;21.40;81.60
36556;DHT22;40859;50.560;7.268;2023-03-23T15:27:29;21.40;81.60
36556;DHT22;40859;50.560;7.268;2023-03-23T15:30:15;21.40;81.50
36556;DHT22;40859;50.560;7.268;2023-03-23T15:32:42;21.50;82.50
36556;DHT22;40859;50.560;7.268;2023-03-23T15:35:14;21.40;82.50
36556;DHT22;40859;50.560;7.268;2023-03-23T15:37:44;21.40;81.80
36556;DHT22;40859;50.560;7.268;2023-03-23T15:40:17;21.50;81.20
36556;DHT22;40859;50.560;7.268;2023-03-23T15:42:43;21.50;81.70
36556;DHT22;40859;50.560;7.268;2023-03-23T15:47:53;21.50;81.90
36556;DHT22;40859;50.560;7.268;2023-03-23T15:53:28;21.50;83.10
36556;DHT22;40859;50.560;7.268;2023-03-23T15:55:55;21.50;81.90
36556;DHT22;40859;50.560;7.268;2023-03-23T15:58:21;21.50;82.30
36556;DHT22;40859;50.560;7.268;2023-03-23T16:00:50;21.50;82.00
36556;DHT22;40859;50.560;7.268;2023-03-23T16:03:18;21.50;83.00
36556;DHT22;40859;50.560;7.268;2023-03-23T16:05:44;21.50;82.30
36556;DHT22;40859;50.560;7.268;2023-03-23T16:08:10;21.50;82.20
36556;DHT22;40859;50.560;7.268;2023-03-23T16:10:36;21.50;82.20
36556;DHT22;40859;50.560;7.268;2023-03-23T16:13:02;21.50;82.00
36556;DHT22;40859;50.560;7.268;2023-03-23T16:15:30;21.50;82.20
36556;DHT22;40859;50.560;7.268;2023-03-23T16:17:55;21.50;82.60
36556;DHT22;40859;50.560;7.268;2023-03-23T16:20:21;21.50;82.90
36556;DHT22;40859;50.560;7.268;2023-03-23T16:22:48;21.50;82.20
36556;DHT22;40859;50.560;7.268;2023-03-23T16:25:14;21.50;81.60
36556;DHT22;40859;50.560;7.268;2023-03-23T16:27:40;21.50;82.00
36556;DHT22;40859;50.560;7.268;2023-03-23T16:30:12;21.50;82.10
36556;DHT22;40859;50.560;7.268;2023-03-23T16:32:38;21.50;82.00
36556;DHT22;40859;50.560;7.268;2023-03-23T16:35:04;21.50;81.80
36556;DHT22;40859;50.560;7.268;2023-03-23T16:37:30;21.50;82.00
36556;DHT22;40859;50.560;7.268;2023-03-23T16:39:58;21.50;81.90
36556;DHT22;40859;50.560;7.268;2023-03-23T16:42:23;21.50;82.90
36556;DHT22;40859;50.560;7.268;2023-03-23T16:44:49;21.50;82.00
36556;DHT22;40859;50.560;7.268;2023-03-23T16:47:16;21.50;82.60
36556;DHT22;40859;50.560;7.268;2023-03-23T16:49:43;21.50;82.70
36556;DHT22;40859;50.560;7.268;2023-03-23T16:52:09;21.50;82.00
36556;DHT22;40859;50.560;7.268;2023-03-23T16:54:34;21.50;82.00
36556;DHT22;40859;50.560;7.268;2023-03-23T16:57:00;21.50;82.00
36556;DHT22;40859;50.560;7.268;2023-03-23T16:59:27;21.50;82.80
36556;DHT22;40859;50.560;7.268;2023-03-23T17:01:52;21.50;82.00